Time;durP1;ratioP1;P1;durP2;ratioP2;P2;SDS_P1;SDS_P2;PMS_P1;PMS_P2;Temp;Humidity;BMP_temperature;BMP_pressure;BME280_temperature;BME280_humidity;BME280_pressure;Samples;Min_cycle;Max_cycle;Signal;HPM_P1;HPM_P2
2022/03/29 00:01:54;;;;;;;25.20;17.70;;;;;;;;;;4985673;28;20562;-72
2022/03/29 00:04:21;;;;;;;24.20;17.90;;;;;;;;;;4988506;28;20502;-74
2022/03/29 00:06:47;;;;;;;24.67;17.92;;;;;;;;;;4989578;28;20549;-72
2022/03/29 00:09:13;;;;;;;20.95;16.50;;;;;;;;;;4988590;28;20042;-72
2022/03/29 00:11:39;;;;;;;20.10;16.48;;;;;;;;;;4990168;28;20042;-72
2022/03/29 00:14:06;;;;;;;22.27;16.60;;;;;;;;;;4984144;28;20042;-72
2022/03/29 00:16:32;;;;;;;20.90;17.35;;;;;;;;;;4985777;28;20051;-72
2022/03/29 00:18:59;;;;;;;18.98;15.40;;;;;;;;;;4967891;28;20046;-72
2022/03/29 00:21:25;;;;;;;19.90;16.17;;;;;;;;;;4985633;28;20121;-72
2022/03/29 00:23:51;;;;;;;20.05;16.30;;;;;;;;;;4986789;28;20046;-72
2022/03/29 00:26:17;;;;;;;21.30;15.95;;;;;;;;;;4981829;28;20085;-72
2022/03/29 00:28:43;;;;;;;19.33;15.35;;;;;;;;;;4986156;28;20051;-72
2022/03/29 00:31:10;;;;;;;21.17;16.70;;;;;;;;;;4983435;28;20053;-72
2022/03/29 00:33:36;;;;;;;20.63;17.20;;;;;;;;;;4987244;28;20046;-72
2022/03/29 00:36:02;;;;;;;19.90;16.63;;;;;;;;;;4983809;28;20046;-72
2022/03/29 00:38:29;;;;;;;18.85;16.02;;;;;;;;;;4986439;28;20038;-72
2022/03/29 00:40:55;;;;;;;21.35;16.52;;;;;;;;;;5001009;28;20049;-72
2022/03/29 00:43:21;;;;;;;22.38;17.15;;;;;;;;;;4986496;28;20050;-71
2022/03/29 00:45:47;;;;;;;19.80;16.52;;;;;;;;;;4986341;28;20046;-72
2022/03/29 00:48:13;;;;;;;23.00;17.25;;;;;;;;;;4982618;28;20046;-71
2022/03/29 00:50:40;;;;;;;21.10;17.58;;;;;;;;;;4983365;28;20434;-72
2022/03/29 00:53:06;;;;;;;22.30;17.90;;;;;;;;;;4982372;28;20046;-72
2022/03/29 00:55:33;;;;;;;24.92;18.75;;;;;;;;;;4984951;28;20398;-72
2022/03/29 00:58:02;;;;;;;23.83;19.30;;;;;;;;;;4983667;28;20046;-72
2022/03/29 01:00:28;;;;;;;23.52;18.80;;;;;;;;;;4982514;28;20058;-72
2022/03/29 01:02:54;;;;;;;22.98;19.17;;;;;;;;;;4981412;28;20057;-72
2022/03/29 01:05:20;;;;;;;22.77;18.17;;;;;;;;;;4984099;28;20387;-72
2022/03/29 01:07:46;;;;;;;24.83;19.38;;;;;;;;;;4980405;28;20057;-71
2022/03/29 01:10:13;;;;;;;24.20;19.45;;;;;;;;;;4986242;28;20042;-72
2022/03/29 01:12:39;;;;;;;25.63;20.27;;;;;;;;;;4986170;28;20050;-72
2022/03/29 01:15:06;;;;;;;25.90;20.75;;;;;;;;;;4985356;28;20038;-72
2022/03/29 01:17:41;;;;;;;24.13;20.27;;;;;;;;;;4984074;28;21828;-70
2022/03/29 01:20:15;;;;;;;34.05;21.27;;;;;;;;;;4983779;28;20063;-72
2022/03/29 01:22:42;;;;;;;29.10;21.13;;;;;;;;;;4985665;28;20089;-72
2022/03/29 01:25:09;;;;;;;24.38;20.60;;;;;;;;;;4985910;28;20034;-72
2022/03/29 01:27:36;;;;;;;26.52;21.90;;;;;;;;;;4966570;28;20092;-72
2022/03/29 01:30:02;;;;;;;26.52;21.65;;;;;;;;;;4982964;28;20042;-72
2022/03/29 01:32:29;;;;;;;23.55;20.83;;;;;;;;;;4986161;28;20527;-72
2022/03/29 01:34:56;;;;;;;27.67;22.08;;;;;;;;;;4984616;28;20035;-72
2022/03/29 01:37:23;;;;;;;25.73;21.40;;;;;;;;;;4983284;28;20073;-71
2022/03/29 01:39:49;;;;;;;26.23;21.10;;;;;;;;;;4985271;28;20042;-71
2022/03/29 01:42:15;;;;;;;25.73;21.70;;;;;;;;;;4984669;28;20045;-73
2022/03/29 01:44:41;;;;;;;31.05;21.85;;;;;;;;;;4987364;28;20129;-72
2022/03/29 01:47:08;;;;;;;24.38;21.10;;;;;;;;;;4987744;28;20121;-73
2022/03/29 01:49:34;;;;;;;27.40;21.90;;;;;;;;;;4987077;28;21773;-71
2022/03/29 01:52:01;;;;;;;26.75;21.48;;;;;;;;;;4987766;28;20042;-71
2022/03/29 01:54:27;;;;;;;27.23;21.75;;;;;;;;;;4985694;28;20042;-72
2022/03/29 01:56:53;;;;;;;24.88;20.02;;;;;;;;;;4985278;28;20088;-71
2022/03/29 01:59:19;;;;;;;26.77;20.95;;;;;;;;;;4985180;28;20073;-71
2022/03/29 02:01:47;;;;;;;24.42;21.48;;;;;;;;;;4985317;28;20108;-71
2022/03/29 02:04:13;;;;;;;28.08;21.45;;;;;;;;;;4985614;28;20038;-72
2022/03/29 02:06:39;;;;;;;25.67;21.30;;;;;;;;;;4984320;28;20061;-72
2022/03/29 02:09:10;;;;;;;24.27;21.05;;;;;;;;;;4984460;28;20035;-72
2022/03/29 02:11:37;;;;;;;26.45;21.15;;;;;;;;;;4985938;28;20049;-71
2022/03/29 02:14:03;;;;;;;26.02;22.33;;;;;;;;;;4986439;28;20088;-72
2022/03/29 02:16:29;;;;;;;28.33;20.80;;;;;;;;;;4985061;28;20046;-72
2022/03/29 02:18:55;;;;;;;24.73;21.10;;;;;;;;;;4968182;28;20121;-72
2022/03/29 02:21:21;;;;;;;25.98;21.98;;;;;;;;;;4985852;28;20042;-72
2022/03/29 02:23:47;;;;;;;24.13;20.60;;;;;;;;;;4969276;28;20048;-72
2022/03/29 02:26:13;;;;;;;25.88;21.70;;;;;;;;;;4983108;28;20055;-72
2022/03/29 02:28:39;;;;;;;25.65;20.60;;;;;;;;;;4976157;28;20042;-72
2022/03/29 02:31:06;;;;;;;27.17;21.77;;;;;;;;;;4981325;28;20049;-71
2022/03/29 02:33:32;;;;;;;26.77;20.73;;;;;;;;;;4983109;28;20046;-72
2022/03/29 02:35:58;;;;;;;25.95;21.35;;;;;;;;;;4988994;28;20069;-72
2022/03/29 02:38:24;;;;;;;26.63;21.38;;;;;;;;;;4991047;28;20089;-72
2022/03/29 02:40:50;;;;;;;27.63;21.08;;;;;;;;;;4985383;28;20105;-72
2022/03/29 02:43:16;;;;;;;28.45;22.38;;;;;;;;;;4986582;28;20085;-72
2022/03/29 02:45:42;;;;;;;26.70;20.65;;;;;;;;;;4986706;28;20068;-72
2022/03/29 02:48:08;;;;;;;26.80;20.48;;;;;;;;;;4988066;28;20038;-72
2022/03/29 02:50:34;;;;;;;26.92;21.77;;;;;;;;;;4990043;28;20061;-72
2022/03/29 02:53:01;;;;;;;25.73;20.75;;;;;;;;;;4976729;28;20045;-72
2022/03/29 02:55:29;;;;;;;25.35;20.65;;;;;;;;;;4994296;28;20049;-72
2022/03/29 02:57:56;;;;;;;27.40;21.17;;;;;;;;;;4990212;28;20038;-72
2022/03/29 03:00:22;;;;;;;24.23;20.70;;;;;;;;;;4987808;28;20050;-72
2022/03/29 03:02:54;;;;;;;24.50;20.35;;;;;;;;;;4990821;28;20030;-72
2022/03/29 03:05:20;;;;;;;23.27;19.17;;;;;;;;;;4988989;28;20042;-72
2022/03/29 03:07:46;;;;;;;26.55;20.45;;;;;;;;;;4987835;28;20070;-72
2022/03/29 03:10:13;;;;;;;23.73;19.70;;;;;;;;;;4987443;28;20065;-72
2022/03/29 03:12:40;;;;;;;26.42;20.00;;;;;;;;;;4989102;28;20037;-72
2022/03/29 03:15:07;;;;;;;29.98;20.85;;;;;;;;;;4987477;28;20053;-72
2022/03/29 03:17:34;;;;;;;26.30;20.45;;;;;;;;;;4983837;28;20030;-72
2022/03/29 03:20:00;;;;;;;26.30;20.65;;;;;;;;;;4985750;28;20071;-72
2022/03/29 03:22:26;;;;;;;27.20;20.15;;;;;;;;;;4985226;28;20038;-73
2022/03/29 03:24:53;;;;;;;27.35;20.23;;;;;;;;;;4990033;28;20125;-72
2022/03/29 03:27:19;;;;;;;28.88;21.17;;;;;;;;;;4985075;28;20042;-72
2022/03/29 03:29:45;;;;;;;27.15;20.30;;;;;;;;;;4984307;28;20093;-72
2022/03/29 03:32:11;;;;;;;27.50;20.52;;;;;;;;;;4987681;28;20080;-72
2022/03/29 03:34:38;;;;;;;27.65;20.52;;;;;;;;;;4983649;28;20073;-72
2022/03/29 03:37:04;;;;;;;29.40;22.27;;;;;;;;;;4986719;28;20093;-72
2022/03/29 03:39:32;;;;;;;27.38;20.75;;;;;;;;;;4986766;28;20034;-72
2022/03/29 03:41:58;;;;;;;28.20;21.67;;;;;;;;;;4990035;28;20038;-72
2022/03/29 03:44:25;;;;;;;29.60;20.98;;;;;;;;;;4988575;28;20054;-72
2022/03/29 03:46:51;;;;;;;31.08;22.25;;;;;;;;;;4987164;28;20053;-72
2022/03/29 03:49:17;;;;;;;25.73;21.17;;;;;;;;;;4985837;28;20038;-72
2022/03/29 03:51:43;;;;;;;27.35;20.90;;;;;;;;;;4988789;28;22228;-72
2022/03/29 03:54:09;;;;;;;27.98;21.33;;;;;;;;;;4986376;28;20081;-72
2022/03/29 03:56:35;;;;;;;26.50;21.60;;;;;;;;;;4987655;28;20077;-72
2022/03/29 03:59:01;;;;;;;33.80;23.30;;;;;;;;;;4988589;28;20394;-72
2022/03/29 04:01:27;;;;;;;28.63;21.65;;;;;;;;;;4988024;28;20057;-72
2022/03/29 04:03:53;;;;;;;33.50;21.83;;;;;;;;;;4984198;28;20422;-72
2022/03/29 04:06:19;;;;;;;32.33;22.20;;;;;;;;;;4984557;28;20038;-72
2022/03/29 04:08:46;;;;;;;30.98;23.10;;;;;;;;;;4987601;28;20045;-72
2022/03/29 04:11:12;;;;;;;29.88;21.80;;;;;;;;;;4986395;28;20057;-72
2022/03/29 04:13:38;;;;;;;29.88;21.33;;;;;;;;;;4987295;28;20044;-72
2022/03/29 04:16:04;;;;;;;29.10;21.90;;;;;;;;;;4987471;28;20050;-72
2022/03/29 04:18:30;;;;;;;33.90;22.88;;;;;;;;;;4987610;28;20041;-73
2022/03/29 04:20:57;;;;;;;33.53;22.65;;;;;;;;;;4973199;28;20042;-72
2022/03/29 04:23:23;;;;;;;28.17;21.98;;;;;;;;;;4972677;28;20050;-72
2022/03/29 04:25:49;;;;;;;29.17;22.63;;;;;;;;;;4988561;28;20056;-71
2022/03/29 04:28:15;;;;;;;32.13;23.17;;;;;;;;;;4987386;28;20057;-72
2022/03/29 04:30:41;;;;;;;27.67;22.00;;;;;;;;;;4988831;28;20030;-72
2022/03/29 04:33:07;;;;;;;30.42;22.02;;;;;;;;;;4990695;28;20043;-72
2022/03/29 04:35:33;;;;;;;31.42;22.00;;;;;;;;;;4971906;28;20129;-72
2022/03/29 04:37:59;;;;;;;30.27;22.08;;;;;;;;;;4989872;28;20049;-71
2022/03/29 04:40:26;;;;;;;29.60;22.98;;;;;;;;;;4986954;28;20047;-72
2022/03/29 04:42:52;;;;;;;30.02;22.65;;;;;;;;;;4988003;28;20069;-73
2022/03/29 04:45:19;;;;;;;33.70;23.55;;;;;;;;;;4988520;28;20035;-72
2022/03/29 04:47:46;;;;;;;31.88;23.13;;;;;;;;;;4955909;28;20072;-72
2022/03/29 04:50:13;;;;;;;34.05;23.90;;;;;;;;;;4971093;28;20046;-72
2022/03/29 04:52:44;;;;;;;30.67;22.55;;;;;;;;;;4972858;28;20106;-72
2022/03/29 04:55:16;;;;;;;34.33;24.25;;;;;;;;;;4971086;28;20048;-72
2022/03/29 04:57:44;;;;;;;37.40;24.27;;;;;;;;;;4972559;28;20045;-73
2022/03/29 05:00:12;;;;;;;34.33;24.08;;;;;;;;;;4985786;28;20419;-74
2022/03/29 05:02:43;;;;;;;32.90;23.50;;;;;;;;;;4986903;28;20089;-71
2022/03/29 05:05:10;;;;;;;35.13;23.92;;;;;;;;;;4987606;28;20125;-72
2022/03/29 05:07:36;;;;;;;35.05;23.35;;;;;;;;;;4984377;28;20550;-73
2022/03/29 05:10:03;;;;;;;35.40;23.83;;;;;;;;;;4986150;28;20100;-72
2022/03/29 05:12:29;;;;;;;31.70;22.92;;;;;;;;;;4989105;28;20044;-72
2022/03/29 05:14:55;;;;;;;33.00;24.23;;;;;;;;;;4986901;28;20068;-73
2022/03/29 05:17:21;;;;;;;32.38;22.60;;;;;;;;;;4986949;28;20046;-73
2022/03/29 05:19:48;;;;;;;28.58;22.25;;;;;;;;;;4983619;28;20026;-73
2022/03/29 05:22:14;;;;;;;31.88;23.02;;;;;;;;;;4986997;28;20038;-72
2022/03/29 05:24:40;;;;;;;34.08;22.98;;;;;;;;;;4988658;28;20049;-72
2022/03/29 05:27:06;;;;;;;39.45;22.23;;;;;;;;;;4988600;28;20050;-74
2022/03/29 05:29:32;;;;;;;31.08;23.85;;;;;;;;;;4983006;28;20046;-72
2022/03/29 05:32:00;;;;;;;34.30;24.33;;;;;;;;;;4981554;28;20117;-73
2022/03/29 05:34:26;;;;;;;35.22;23.67;;;;;;;;;;4970316;28;20046;-72
2022/03/29 05:36:53;;;;;;;33.67;23.75;;;;;;;;;;4985549;28;20078;-72
2022/03/29 05:39:19;;;;;;;31.50;22.77;;;;;;;;;;4985750;28;20088;-71
2022/03/29 05:41:45;;;;;;;34.33;23.75;;;;;;;;;;4981458;28;20042;-73
2022/03/29 05:44:11;;;;;;;35.97;24.77;;;;;;;;;;4984866;28;20041;-73
2022/03/29 05:49:23;;;;;;;34.17;23.20;;;;;;;;;;4985261;28;20096;-73
2022/03/29 05:51:50;;;;;;;36.17;23.88;;;;;;;;;;4985064;28;20043;-72
2022/03/29 05:54:17;;;;;;;34.03;24.42;;;;;;;;;;4986250;28;20040;-72
2022/03/29 05:56:43;;;;;;;35.25;23.35;;;;;;;;;;4985049;28;20046;-72
2022/03/29 05:59:09;;;;;;;35.42;23.95;;;;;;;;;;4984565;28;20054;-72
2022/03/29 06:01:35;;;;;;;39.08;25.20;;;;;;;;;;4980742;28;20042;-72
2022/03/29 06:04:06;;;;;;;31.88;23.80;;;;;;;;;;4988178;28;20045;-72
2022/03/29 06:06:37;;;;;;;35.38;24.85;;;;;;;;;;4989469;28;20074;-72
2022/03/29 06:09:03;;;;;;;36.70;24.92;;;;;;;;;;4986027;28;20053;-72
2022/03/29 06:11:29;;;;;;;37.67;24.25;;;;;;;;;;4993391;28;20038;-72
2022/03/29 06:13:56;;;;;;;37.10;25.05;;;;;;;;;;4988969;28;20507;-72
2022/03/29 06:16:23;;;;;;;35.40;24.13;;;;;;;;;;4992727;28;20199;-72
2022/03/29 06:18:48;;;;;;;34.17;24.15;;;;;;;;;;4993816;28;20482;-72
2022/03/29 06:21:16;;;;;;;40.17;24.90;;;;;;;;;;4986728;28;20038;-73
2022/03/29 06:23:42;;;;;;;34.65;24.65;;;;;;;;;;4988624;28;20050;-72
2022/03/29 06:26:09;;;;;;;37.10;25.38;;;;;;;;;;4988666;28;20049;-73
2022/03/29 06:28:35;;;;;;;38.70;25.10;;;;;;;;;;4986839;28;20054;-72
2022/03/29 06:31:01;;;;;;;34.20;23.70;;;;;;;;;;4987947;28;20038;-72
2022/03/29 06:33:27;;;;;;;40.78;24.65;;;;;;;;;;4988914;28;20046;-72
2022/03/29 06:35:53;;;;;;;35.38;24.95;;;;;;;;;;4987128;28;20521;-72
2022/03/29 06:38:21;;;;;;;37.17;25.20;;;;;;;;;;4988574;28;20034;-72
2022/03/29 06:40:47;;;;;;;38.22;24.90;;;;;;;;;;4986429;28;20046;-72
2022/03/29 06:43:14;;;;;;;40.13;25.40;;;;;;;;;;4989081;28;20049;-72
2022/03/29 06:45:40;;;;;;;37.30;26.98;;;;;;;;;;4987738;28;20505;-72
2022/03/29 06:48:07;;;;;;;42.10;25.30;;;;;;;;;;4986207;28;20042;-72
2022/03/29 06:50:35;;;;;;;37.13;25.30;;;;;;;;;;4984117;28;20049;-71
2022/03/29 06:53:01;;;;;;;38.25;25.58;;;;;;;;;;4989061;28;20121;-72
2022/03/29 06:55:27;;;;;;;41.08;26.77;;;;;;;;;;4991968;28;20039;-72
2022/03/29 06:57:54;;;;;;;42.78;27.83;;;;;;;;;;4992867;28;20050;-72
2022/03/29 07:00:21;;;;;;;43.70;27.70;;;;;;;;;;4992102;28;20054;-72
2022/03/29 07:02:48;;;;;;;42.00;27.08;;;;;;;;;;4976944;28;20034;-72
2022/03/29 07:05:19;;;;;;;42.72;28.42;;;;;;;;;;4973333;28;20095;-72
2022/03/29 07:07:45;;;;;;;45.65;28.05;;;;;;;;;;4969644;28;20069;-72
2022/03/29 07:12:57;;;;;;;47.67;29.23;;;;;;;;;;4978379;28;20122;-71
2022/03/29 07:15:24;;;;;;;45.28;28.45;;;;;;;;;;4994970;28;20034;-71
2022/03/29 07:17:50;;;;;;;41.38;27.95;;;;;;;;;;4988305;28;20527;-71
2022/03/29 07:20:17;;;;;;;41.25;28.25;;;;;;;;;;4995767;28;20042;-72
2022/03/29 07:22:44;;;;;;;43.42;29.45;;;;;;;;;;4995447;28;20101;-71
2022/03/29 07:25:11;;;;;;;48.08;29.35;;;;;;;;;;4994167;28;20097;-71
2022/03/29 07:27:37;;;;;;;37.03;28.20;;;;;;;;;;4994366;28;20043;-71
2022/03/29 07:30:04;;;;;;;49.55;31.45;;;;;;;;;;4992085;28;20523;-71
2022/03/29 07:32:30;;;;;;;45.00;29.58;;;;;;;;;;4993239;28;20402;-71
2022/03/29 07:34:57;;;;;;;46.28;30.17;;;;;;;;;;4990490;28;20045;-72
2022/03/29 07:37:23;;;;;;;43.42;29.90;;;;;;;;;;4990728;28;20046;-72
2022/03/29 07:39:53;;;;;;;43.92;29.75;;;;;;;;;;4988786;28;20042;-71
2022/03/29 07:42:21;;;;;;;50.17;30.20;;;;;;;;;;4993361;28;20449;-71
2022/03/29 07:44:49;;;;;;;43.97;29.38;;;;;;;;;;4993552;28;20410;-72
2022/03/29 07:47:17;;;;;;;45.65;29.42;;;;;;;;;;4990961;28;20417;-72
2022/03/29 07:49:43;;;;;;;44.13;29.25;;;;;;;;;;4975541;28;20479;-72
2022/03/29 07:52:09;;;;;;;42.65;30.10;;;;;;;;;;4988643;28;20406;-71
2022/03/29 07:54:35;;;;;;;45.75;30.08;;;;;;;;;;4990554;28;20410;-72
2022/03/29 07:57:01;;;;;;;44.42;31.10;;;;;;;;;;4991448;28;20552;-72
2022/03/29 07:59:28;;;;;;;46.78;32.63;;;;;;;;;;4990337;28;20046;-72
2022/03/29 08:01:54;;;;;;;49.63;31.65;;;;;;;;;;4975905;28;20038;-72
2022/03/29 08:04:21;;;;;;;49.63;34.47;;;;;;;;;;4989721;28;20054;-72
2022/03/29 08:06:47;;;;;;;46.83;32.35;;;;;;;;;;4990601;28;20050;-71
2022/03/29 08:09:14;;;;;;;47.40;32.08;;;;;;;;;;4991071;28;20487;-72
2022/03/29 08:11:41;;;;;;;44.20;30.75;;;;;;;;;;4991217;28;20042;-71
2022/03/29 08:14:07;;;;;;;50.85;32.60;;;;;;;;;;4991664;28;20482;-72
2022/03/29 08:16:33;;;;;;;41.28;29.70;;;;;;;;;;4989247;28;20050;-72
2022/03/29 08:19:00;;;;;;;45.60;30.48;;;;;;;;;;4988174;28;20046;-72
2022/03/29 08:24:12;;;;;;;42.75;30.45;;;;;;;;;;4991503;28;20053;-72
2022/03/29 08:26:38;;;;;;;40.40;28.70;;;;;;;;;;4975626;28;20125;-72
2022/03/29 08:29:04;;;;;;;47.38;30.17;;;;;;;;;;4991693;28;20068;-72
2022/03/29 08:31:30;;;;;;;41.10;28.85;;;;;;;;;;4991209;28;20504;-73
2022/03/29 08:33:56;;;;;;;40.13;28.27;;;;;;;;;;4988744;28;20121;-73
2022/03/29 08:36:22;;;;;;;45.20;29.48;;;;;;;;;;4987631;28;20065;-72
2022/03/29 08:38:48;;;;;;;46.28;30.13;;;;;;;;;;4990813;28;20030;-72
2022/03/29 08:41:14;;;;;;;42.67;29.13;;;;;;;;;;4989284;28;20038;-72
2022/03/29 08:43:40;;;;;;;43.55;27.52;;;;;;;;;;4990840;28;20070;-72
2022/03/29 08:46:06;;;;;;;43.58;27.20;;;;;;;;;;4989226;28;20077;-72
2022/03/29 08:48:33;;;;;;;40.58;27.02;;;;;;;;;;4991306;28;20042;-71
2022/03/29 08:51:00;;;;;;;41.33;24.73;;;;;;;;;;4973863;28;20052;-72
2022/03/29 08:53:28;;;;;;;40.80;25.02;;;;;;;;;;4979845;28;20038;-72
2022/03/29 08:55:54;;;;;;;40.85;25.75;;;;;;;;;;5006791;28;20046;-71
2022/03/29 08:58:22;;;;;;;40.80;26.27;;;;;;;;;;4990582;28;20057;-72
2022/03/29 09:00:51;;;;;;;39.45;25.17;;;;;;;;;;4989296;28;20038;-72
2022/03/29 09:03:18;;;;;;;38.90;24.25;;;;;;;;;;4989150;28;20139;-72
2022/03/29 09:05:44;;;;;;;35.10;22.98;;;;;;;;;;4985260;28;20046;-72
2022/03/29 09:08:11;;;;;;;36.65;23.58;;;;;;;;;;4986814;28;20128;-71
2022/03/29 09:10:38;;;;;;;33.88;22.88;;;;;;;;;;4989411;28;20054;-72
2022/03/29 09:13:20;;;;;;;39.55;23.13;;;;;;;;;;4989479;28;20049;-72
2022/03/29 09:15:47;;;;;;;;;;;;;;;;;;4990695;28;20054;-72
2022/03/29 09:18:13;;;;;;;37.10;23.05;;;;;;;;;;4987177;28;19925;-72
2022/03/29 09:20:40;;;;;;;37.95;21.45;;;;;;;;;;4990184;28;20061;-72
2022/03/29 09:23:12;;;;;;;39.10;22.50;;;;;;;;;;4982553;28;20042;-72
2022/03/29 09:25:38;;;;;;;;;;;;;;;;;;4987155;28;20053;-71
2022/03/29 09:28:04;;;;;;;35.97;22.38;;;;;;;;;;4988511;28;19918;-72
2022/03/29 09:30:38;;;;;;;36.17;22.10;;;;;;;;;;4985511;28;20042;-72
2022/03/29 09:33:15;;;;;;;36.28;22.40;;;;;;;;;;4985912;28;20054;-72
2022/03/29 09:35:53;;;;;;;38.10;22.73;;;;;;;;;;4989648;28;20042;-72
2022/03/29 09:38:24;;;;;;;35.95;21.83;;;;;;;;;;4988871;28;20049;-73
2022/03/29 09:40:50;;;;;;;35.08;20.80;;;;;;;;;;4989677;28;20076;-72
2022/03/29 09:43:17;;;;;;;36.90;21.42;;;;;;;;;;4985212;28;20045;-72
2022/03/29 09:45:44;;;;;;;31.25;20.17;;;;;;;;;;4991770;28;20050;-71
2022/03/29 09:48:20;;;;;;;36.22;20.50;;;;;;;;;;4988028;28;20046;-72
2022/03/29 09:50:47;;;;;;;33.72;19.33;;;;;;;;;;4992806;28;20158;-72
2022/03/29 09:53:31;;;;;;;36.33;19.55;;;;;;;;;;4991842;28;20050;-71
2022/03/29 09:55:59;;;;;;;32.75;18.42;;;;;;;;;;4992452;28;20046;-71
2022/03/29 09:58:25;;;;;;;35.10;20.20;;;;;;;;;;4985892;28;20042;-72
2022/03/29 10:00:51;;;;;;;32.00;19.60;;;;;;;;;;4984512;28;20046;-71
2022/03/29 10:03:17;;;;;;;34.42;20.23;;;;;;;;;;4990109;28;20046;-72
2022/03/29 10:05:47;;;;;;;32.55;19.73;;;;;;;;;;4989415;28;20053;-72
2022/03/29 10:11:02;;;;;;;34.20;20.38;;;;;;;;;;4993089;28;20050;-72
2022/03/29 10:13:28;;;;;;;33.05;19.00;;;;;;;;;;4992530;28;20732;-72
2022/03/29 10:15:55;;;;;;;38.67;18.85;;;;;;;;;;4990408;28;20070;-71
2022/03/29 10:18:22;;;;;;;35.20;19.45;;;;;;;;;;4992913;28;20048;-72
2022/03/29 10:20:48;;;;;;;33.95;18.95;;;;;;;;;;4991159;28;20038;-72
2022/03/29 10:23:14;;;;;;;35.63;18.80;;;;;;;;;;4991750;28;20060;-72
2022/03/29 10:25:41;;;;;;;36.92;17.63;;;;;;;;;;4993477;28;20050;-72
2022/03/29 10:28:08;;;;;;;34.50;18.50;;;;;;;;;;4993206;28;20038;-71
2022/03/29 10:30:41;;;;;;;33.67;18.17;;;;;;;;;;4976110;28;20053;-72
2022/03/29 10:33:24;;;;;;;31.20;17.45;;;;;;;;;;4988929;28;20487;-71
2022/03/29 10:35:59;;;;;;;31.58;18.38;;;;;;;;;;4987699;28;20435;-71
2022/03/29 10:38:43;;;;;;;36.50;18.00;;;;;;;;;;4990496;28;20042;-71
2022/03/29 10:41:33;;;;;;;28.45;17.83;;;;;;;;;;4987439;28;20077;-74
2022/03/29 10:44:04;;;;;;;34.33;18.25;;;;;;;;;;4989211;28;20038;-74
2022/03/29 10:46:45;;;;;;;33.33;18.80;;;;;;;;;;4993293;28;20124;-74
2022/03/29 10:49:17;;;;;;;30.05;18.33;;;;;;;;;;4975451;28;20054;-72
2022/03/29 10:51:43;;;;;;;27.33;17.70;;;;;;;;;;4991481;28;20042;-71
2022/03/29 10:54:26;;;;;;;30.48;19.42;;;;;;;;;;4994661;28;20046;-73
2022/03/29 10:56:57;;;;;;;35.65;18.95;;;;;;;;;;4993902;28;20073;-72
2022/03/29 10:59:24;;;;;;;32.08;18.48;;;;;;;;;;4974841;28;20061;-72
2022/03/29 11:02:09;;;;;;;32.53;18.52;;;;;;;;;;4974874;28;20042;-73
2022/03/29 11:04:35;;;;;;;32.10;17.83;;;;;;;;;;4993316;28;20073;-72
2022/03/29 11:07:07;;;;;;;28.98;17.13;;;;;;;;;;4994735;28;20494;-71
2022/03/29 11:09:34;;;;;;;51.05;36.28;;;;;;;;;;4994113;28;20399;-72
2022/03/29 11:12:01;;;;;;;28.75;18.02;;;;;;;;;;4991219;28;20046;-72
2022/03/29 11:14:31;;;;;;;27.50;17.60;;;;;;;;;;4960608;28;20042;-72
2022/03/29 11:17:17;;;;;;;26.50;17.98;;;;;;;;;;4996889;28;20043;-72
2022/03/29 11:19:44;;;;;;;31.95;18.65;;;;;;;;;;4994267;28;20053;-73
2022/03/29 11:22:23;;;;;;;30.85;19.00;;;;;;;;;;4991478;28;20054;-72
2022/03/29 11:24:50;;;;;;;32.28;17.48;;;;;;;;;;4992978;28;20038;-72
2022/03/29 11:27:23;;;;;;;23.55;17.35;;;;;;;;;;4987226;28;20073;-73
2022/03/29 11:29:50;;;;;;;27.83;17.45;;;;;;;;;;4984281;28;20030;-73
2022/03/29 11:32:17;;;;;;;33.75;18.95;;;;;;;;;;4990127;28;20053;-72
2022/03/29 11:34:44;;;;;;;27.23;18.48;;;;;;;;;;4984627;28;20042;-73
2022/03/29 11:37:29;;;;;;;30.08;17.40;;;;;;;;;;4988766;28;20050;-73
2022/03/29 11:39:56;;;;;;;36.42;17.90;;;;;;;;;;4991752;28;20113;-73
2022/03/29 11:42:22;;;;;;;26.75;16.63;;;;;;;;;;4989848;28;20047;-73
2022/03/29 11:44:48;;;;;;;30.77;16.55;;;;;;;;;;4994277;28;20034;-72
2022/03/29 11:47:14;;;;;;;30.45;17.02;;;;;;;;;;4988595;28;20442;-72
2022/03/29 11:49:41;;;;;;;30.13;17.90;;;;;;;;;;4992932;28;20049;-72
2022/03/29 11:52:08;;;;;;;27.85;17.13;;;;;;;;;;4992871;28;20181;-73
2022/03/29 11:54:39;;;;;;;24.80;17.88;;;;;;;;;;4991879;28;20038;-72
2022/03/29 11:57:17;;;;;;;24.05;17.25;;;;;;;;;;4985928;28;20121;-72
2022/03/29 11:59:44;;;;;;;29.17;17.08;;;;;;;;;;4991576;28;20526;-74
2022/03/29 12:02:10;;;;;;;31.65;16.88;;;;;;;;;;4974290;28;20150;-72
2022/03/29 12:04:39;;;;;;;23.38;16.80;;;;;;;;;;4974763;28;20490;-73
2022/03/29 12:07:05;;;;;;;30.83;16.85;;;;;;;;;;4991264;28;20490;-72
2022/03/29 12:09:31;;;;;;;28.30;16.63;;;;;;;;;;4986571;28;20042;-72
2022/03/29 12:12:03;;;;;;;29.08;16.80;;;;;;;;;;4990552;28;20497;-73
2022/03/29 12:14:30;;;;;;;26.27;17.15;;;;;;;;;;4988940;28;20034;-73
2022/03/29 12:17:03;;;;;;;25.35;16.70;;;;;;;;;;4991607;28;20581;-73
2022/03/29 12:19:29;;;;;;;22.15;16.00;;;;;;;;;;4991589;28;20805;-74
2022/03/29 12:21:59;;;;;;;29.33;16.40;;;;;;;;;;4986193;28;20038;-73
2022/03/29 12:24:26;;;;;;;21.70;15.52;;;;;;;;;;4989427;28;20042;-73
2022/03/29 12:26:53;;;;;;;26.92;15.95;;;;;;;;;;4991133;28;20034;-72
2022/03/29 12:29:21;;;;;;;27.13;16.35;;;;;;;;;;4990828;28;20473;-73
2022/03/29 12:31:49;;;;;;;22.67;15.35;;;;;;;;;;4988163;28;20434;-72
2022/03/29 12:34:20;;;;;;;23.75;16.20;;;;;;;;;;4986303;28;20502;-72
2022/03/29 12:36:50;;;;;;;28.15;16.50;;;;;;;;;;4987505;28;20490;-72
2022/03/29 12:39:16;;;;;;;25.10;16.23;;;;;;;;;;4974262;28;20391;-72
2022/03/29 12:41:51;;;;;;;27.73;16.45;;;;;;;;;;4989746;28;20085;-72
2022/03/29 12:44:34;;;;;;;30.77;15.77;;;;;;;;;;4984724;28;20145;-72
2022/03/29 12:47:01;;;;;;;29.17;17.25;;;;;;;;;;4970964;28;20595;-72
2022/03/29 12:49:27;;;;;;;25.90;16.80;;;;;;;;;;4989115;28;20402;-73
2022/03/29 12:51:55;;;;;;;24.13;15.35;;;;;;;;;;4990094;28;20157;-73
2022/03/29 12:54:31;;;;;;;24.40;15.40;;;;;;;;;;4989787;28;20049;-73
2022/03/29 12:56:58;;;;;;;26.90;16.52;;;;;;;;;;4990438;28;20045;-72
2022/03/29 12:59:37;;;;;;;28.23;16.35;;;;;;;;;;4984526;28;20406;-74
2022/03/29 13:02:10;;;;;;;28.90;15.93;;;;;;;;;;4981599;28;20066;-73
2022/03/29 13:04:40;;;;;;;26.02;15.85;;;;;;;;;;4978944;28;20382;-73
2022/03/29 13:07:07;;;;;;;23.20;16.02;;;;;;;;;;4985295;28;20550;-73
2022/03/29 13:09:35;;;;;;;28.40;15.95;;;;;;;;;;4988797;28;20658;-73
2022/03/29 13:12:09;;;;;;;25.27;15.77;;;;;;;;;;4985937;28;20608;-73
2022/03/29 13:14:36;;;;;;;29.27;14.93;;;;;;;;;;4971556;28;20049;-73
2022/03/29 13:17:02;;;;;;;22.58;14.75;;;;;;;;;;4984521;28;20042;-73
2022/03/29 13:19:28;;;;;;;24.92;15.80;;;;;;;;;;4988315;28;20520;-74
2022/03/29 13:21:58;;;;;;;27.83;15.35;;;;;;;;;;4984871;28;20441;-72
2022/03/29 13:24:34;;;;;;;25.33;14.52;;;;;;;;;;4988515;28;20045;-72
2022/03/29 13:27:00;;;;;;;25.63;14.27;;;;;;;;;;4988976;28;20594;-74
2022/03/29 13:29:27;;;;;;;28.70;14.50;;;;;;;;;;4990523;28;20526;-75
2022/03/29 13:31:53;;;;;;;27.80;14.45;;;;;;;;;;4989678;28;20092;-72
2022/03/29 13:34:21;;;;;;;26.88;14.50;;;;;;;;;;4986019;28;20565;-72
2022/03/29 13:36:47;;;;;;;24.55;14.50;;;;;;;;;;4987456;28;20034;-73
2022/03/29 13:39:14;;;;;;;26.10;13.88;;;;;;;;;;4986937;28;20537;-73
2022/03/29 13:41:40;;;;;;;23.70;13.20;;;;;;;;;;4995437;28;20402;-74
2022/03/29 13:44:07;;;;;;;22.73;12.82;;;;;;;;;;4987250;28;20034;-72
2022/03/29 13:46:33;;;;;;;25.25;13.05;;;;;;;;;;4984344;28;20679;-72
2022/03/29 13:48:59;;;;;;;24.52;12.88;;;;;;;;;;4984661;28;20542;-72
2022/03/29 13:51:25;;;;;;;20.80;13.05;;;;;;;;;;4987328;28;20514;-72
2022/03/29 13:53:52;;;;;;;22.70;13.35;;;;;;;;;;4987888;28;20081;-72
2022/03/29 13:56:19;;;;;;;25.23;12.48;;;;;;;;;;4986674;28;20060;-72
2022/03/29 13:58:45;;;;;;;21.13;12.07;;;;;;;;;;4985206;28;20049;-72
2022/03/29 14:01:11;;;;;;;23.17;12.00;;;;;;;;;;4988531;28;20043;-72
2022/03/29 14:03:37;;;;;;;24.33;13.27;;;;;;;;;;4988915;28;20054;-72
2022/03/29 14:06:04;;;;;;;24.40;12.68;;;;;;;;;;4985389;28;20046;-72
2022/03/29 14:08:30;;;;;;;25.60;11.65;;;;;;;;;;4988800;28;20126;-72
2022/03/29 14:10:57;;;;;;;24.05;11.85;;;;;;;;;;4987565;28;20139;-72
2022/03/29 14:13:27;;;;;;;22.60;11.48;;;;;;;;;;4986879;28;20050;-72
2022/03/29 14:15:57;;;;;;;26.13;12.00;;;;;;;;;;4987137;28;20469;-72
2022/03/29 14:18:23;;;;;;;24.40;11.35;;;;;;;;;;4988343;28;20716;-72
2022/03/29 14:20:50;;;;;;;22.17;12.02;;;;;;;;;;4983390;28;20043;-72
2022/03/29 14:23:19;;;;;;;23.13;12.45;;;;;;;;;;4991569;28;20092;-72
2022/03/29 14:25:45;;;;;;;20.98;11.38;;;;;;;;;;4992499;28;20042;-71
2022/03/29 14:28:14;;;;;;;20.95;11.48;;;;;;;;;;4988465;28;20050;-73
2022/03/29 14:30:41;;;;;;;21.00;11.02;;;;;;;;;;4984339;28;20050;-72
2022/03/29 14:33:08;;;;;;;20.27;10.43;;;;;;;;;;4992181;28;20045;-72